KSGF/SGF METAR and TAF weather

Enter ICAO airport designator
Station Type Date Time Source
KSGF METAR 2021/05/13 05:52 UTC NOAA

KSGF 130552Z 07007KT 10SM CLR 09/00 A3035 RMK AO2 SLP278 T00940000 10172 20094 401780094 51006


Station Type Date Time Source
KSGF Decoded METAR 2021/05/13 05:52 UTC NOAA

SPRINGFIELD-BRANSON NATIONAL, MO, United States (KSGF) 37-14N 93-23W 389M
May 13, 2021 - 01:52 AM EDT / 2021.05.13 0552 UTC
Wind: from the ENE (070 degrees) at 8 MPH (7 KT):0
Visibility: 10 mile(s):0
Sky conditions: clear
Temperature: 48.9 F (9.4 C)
Dew Point: 32.0 F (0.0 C)
Relative Humidity: 51%
Pressure (altimeter): 30.35 in. Hg (1027 hPa)
Pressure tendency: 0.02 inches (0.6 hPa) higher than three hours ago
ob: KSGF 130552Z 07007KT 10SM CLR 09/00 A3035 RMK AO2 SLP278 T00940000 10172 20094 401780094 51006
cycle: 6

Station Type Date Time Source
KSGF TAF 2021/05/13 06:22 UTC NOAA

TAF KSGF 130520Z 1306/1406 VRB05KT P6SM FEW150
FM131100 10005KT P6SM SKC

Example: see airport list